Terminal Aerodrome Forecast
Issued by NWS

Home | Current Version | Previous Version | Text Only | Print | Product List | Glossary On
Versions: 1 2 3 4 5 6 7 8 9 10 11 12 13 14 15 16 17 18 19 20 21 22 23 24 25 26 27
000
FTUS43 KIND 211700
TAFHUF
TAF
KHUF 211728Z 2118/2218 25008KT P6SM FEW100
     FM221200 23003KT P6SM SCT130=

USA.gov is the U.S. government's official web portal to all federal, state and local government web resources and services.